South Williamsport, Pennsylvania
Current Conditions -  °F | °C
As of 4:54 AM on Thursday 23 Oct 2014 (Local Time) from KIPT Reporting Station
Broken Clouds Broken Clouds  
Wind Chill: 51°   Ceiling: 6000
Heat Index: 51°   Visibility: 10mi
Dew Point: 40°   Wind: 13mph
Humidity: 66%   Direction: 310°NW
Pressure: 29.92"   Gusts: 20mph
Location:  41.2285°N, 77.014°W
Report Text: KIPT 230854Z AUTO 31011G17KT 10SM FEW026 SCT050 BKN060 11/04 A2992 RMK AO2 SLP132 60000 T01060044 56011
Loading
Personal Weather Stations






























Interactive Weather Map
Tropical Storm Tracking
New forecast layout! Learn more

10-Day Weather Forecast

Advertisements
Track Severe Weather on mobile